Time;durP1;ratioP1;P1;durP2;ratioP2;P2;SDS_P1;SDS_P2;PMS_P1;PMS_P2;Temp;Humidity;BMP_temperature;BMP_pressure;BME280_temperature;BME280_humidity;BME280_pressure;Samples;Min_cycle;Max_cycle;Signal;HPM_P1;HPM_P2
2021/08/13 00:02:03;;;;;;;41.27;24.50;;;18.50;99.90;;;;;;5106291;28;20241;-78
2021/08/13 00:04:29;;;;;;;42.97;25.03;;;18.50;99.90;;;;;;5104100;28;20281;-77
2021/08/13 00:06:56;;;;;;;39.37;25.50;;;18.50;99.90;;;;;;5107982;28;20222;-76
2021/08/13 00:09:23;;;;;;;38.60;24.20;;;18.40;99.90;;;;;;5102939;28;20296;-76
2021/08/13 00:11:50;;;;;;;39.73;24.50;;;18.40;99.90;;;;;;5108451;28;20277;-76
2021/08/13 00:14:18;;;;;;;41.63;24.10;;;18.50;99.90;;;;;;5103901;28;20688;-76
2021/08/13 00:16:44;;;;;;;37.33;24.23;;;18.60;99.90;;;;;;5107793;28;20261;-77
2021/08/13 00:19:13;;;;;;;47.20;26.17;;;18.60;99.90;;;;;;5108034;28;20198;-77
2021/08/13 00:21:41;;;;;;;47.43;25.53;;;18.60;99.90;;;;;;5108934;28;20206;-77
2021/08/13 00:24:08;;;;;;;47.70;27.07;;;18.70;99.90;;;;;;5110362;28;20213;-79
2021/08/13 00:26:35;;;;;;;39.87;24.33;;;18.70;99.90;;;;;;5105269;28;20215;-77
2021/08/13 00:29:02;;;;;;;41.87;25.07;;;18.80;99.90;;;;;;5111869;28;20201;-77
2021/08/13 00:31:29;;;;;;;41.20;24.37;;;18.80;99.90;;;;;;5107330;28;20209;-76
2021/08/13 00:33:56;;;;;;;39.50;24.00;;;18.90;99.90;;;;;;5110925;28;20242;-77
2021/08/13 00:36:24;;;;;;;36.83;24.07;;;19.00;99.90;;;;;;5098223;28;20291;-77
2021/08/13 00:38:51;;;;;;;41.63;23.33;;;19.00;99.90;;;;;;5109442;28;20281;-77
2021/08/13 00:41:18;;;;;;;35.10;22.40;;;19.00;99.90;;;;;;5109788;28;20280;-78
2021/08/13 00:43:45;;;;;;;33.10;21.40;;;19.00;99.90;;;;;;5105845;28;20288;-75
2021/08/13 00:46:12;;;;;;;35.60;21.67;;;18.90;99.90;;;;;;5098857;28;20222;-76
2021/08/13 00:48:39;;;;;;;38.73;21.20;;;18.90;99.90;;;;;;5113279;28;20199;-79
2021/08/13 00:51:06;;;;;;;40.30;22.50;;;18.90;99.90;;;;;;5113096;28;20229;-76
2021/08/13 00:53:34;;;;;;;37.07;21.87;;;18.80;99.90;;;;;;5112611;28;20248;-77
2021/08/13 00:56:01;;;;;;;33.67;21.03;;;18.70;99.90;;;;;;5115521;28;20204;-76
2021/08/13 00:58:28;;;;;;;40.27;22.43;;;18.70;99.90;;;;;;5117093;28;20289;-79
2021/08/13 01:00:57;;;;;;;40.80;23.30;;;18.60;99.90;;;;;;5117095;28;20292;-76
2021/08/13 01:03:24;;;;;;;44.90;22.70;;;18.70;99.90;;;;;;5117249;28;20202;-78
2021/08/13 01:05:51;;;;;;;42.40;23.83;;;18.70;99.90;;;;;;5115886;28;20404;-75
2021/08/13 01:08:18;;;;;;;39.37;22.77;;;18.60;99.90;;;;;;5116771;28;20213;-80
2021/08/13 01:10:53;;;;;;;42.60;25.60;;;18.60;99.90;;;;;;5112512;28;20252;-75
2021/08/13 01:13:30;;;;;;;45.77;25.80;;;18.60;99.90;;;;;;5116589;28;20200;-78
2021/08/13 01:16:01;;;;;;;40.43;24.63;;;18.60;99.90;;;;;;5116813;28;20243;-75
2021/08/13 01:18:32;;;;;;;47.07;26.63;;;18.50;99.90;;;;;;5116803;28;20190;-76
2021/08/13 01:21:29;;;;;;;47.80;25.97;;;18.50;99.90;;;;;;5116494;28;20220;-77
2021/08/13 01:24:02;;;;;;;51.10;25.37;;;18.50;99.90;;;;;;5100969;28;20289;-75
2021/08/13 01:26:37;;;;;;;49.73;26.87;;;18.50;99.90;;;;;;5115382;28;20228;-80
2021/08/13 01:29:16;;;;;;;47.60;26.40;;;18.40;99.90;;;;;;5114857;28;20724;-77
2021/08/13 01:31:49;;;;;;;40.37;25.80;;;18.40;99.90;;;;;;5116086;28;20717;-79
2021/08/13 01:34:19;;;;;;;46.33;25.47;;;18.50;99.90;;;;;;5116680;28;20218;-80
2021/08/13 01:36:49;;;;;;;42.37;25.03;;;18.50;99.90;;;;;;5102815;28;20289;-78
2021/08/13 01:39:17;;;;;;;41.90;24.27;;;18.60;99.90;;;;;;5107342;28;20210;-77
2021/08/13 01:41:45;;;;;;;41.77;22.30;;;18.60;99.90;;;;;;5111189;28;20643;-76
2021/08/13 01:44:13;;;;;;;33.23;20.33;;;18.60;99.90;;;;;;5116029;28;20635;-75
2021/08/13 01:46:42;;;;;;;33.63;21.30;;;18.60;99.90;;;;;;5116237;28;20713;-79
2021/08/13 01:49:11;;;;;;;29.63;19.23;;;18.60;99.90;;;;;;5115064;28;20262;-75
2021/08/13 01:51:39;;;;;;;32.53;18.50;;;18.60;99.90;;;;;;5116158;28;20197;-76
2021/08/13 01:54:07;;;;;;;29.53;18.77;;;18.60;99.90;;;;;;5116038;28;20281;-78
2021/08/13 01:56:34;;;;;;;29.67;18.60;;;18.50;99.90;;;;;;5115861;28;20226;-75
2021/08/13 01:59:02;;;;;;;37.20;21.30;;;18.40;99.90;;;;;;5116046;28;20281;-75
2021/08/13 02:01:30;;;;;;;33.73;20.53;;;18.40;99.90;;;;;;5115524;28;20230;-77
2021/08/13 02:03:57;;;;;;;36.90;21.30;;;18.30;99.90;;;;;;5115941;28;20217;-75
2021/08/13 02:06:26;;;;;;;38.20;21.20;;;18.40;99.90;;;;;;5114784;28;20221;-75
2021/08/13 02:08:55;;;;;;;35.27;22.07;;;18.30;99.90;;;;;;5115610;28;20545;-75
2021/08/13 02:11:23;;;;;;;37.77;23.07;;;18.20;99.90;;;;;;5112326;28;20278;-76
2021/08/13 02:13:50;;;;;;;36.57;21.07;;;18.30;99.90;;;;;;5104711;28;20202;-76
2021/08/13 02:16:24;;;;;;;38.13;22.33;;;18.30;99.90;;;;;;5115665;28;20297;-75
2021/08/13 02:19:00;;;;;;;40.83;22.40;;;18.20;99.90;;;;;;5103827;27;20303;-74
2021/08/13 02:21:28;;;;;;;38.37;22.17;;;18.10;99.90;;;;;;5115256;28;20716;-79
2021/08/13 02:23:56;;;;;;;35.03;20.63;;;18.20;99.90;;;;;;5115429;28;20285;-78
2021/08/13 02:26:23;;;;;;;39.97;21.37;;;18.20;99.90;;;;;;5114162;28;20218;-79
2021/08/13 02:28:50;;;;;;;34.40;19.93;;;18.20;99.90;;;;;;5115770;28;20292;-77
2021/08/13 02:31:17;;;;;;;33.33;19.60;;;18.20;99.90;;;;;;5115135;28;20298;-78
2021/08/13 02:33:44;;;;;;;30.03;19.07;;;18.20;99.90;;;;;;5109564;28;20668;-76
2021/08/13 02:36:15;;;;;;;41.00;21.37;;;18.20;99.90;;;;;;5095526;28;20234;-76
2021/08/13 02:38:53;;;;;;;34.73;21.43;;;18.20;99.90;;;;;;5113482;28;20285;-78
2021/08/13 02:41:23;;;;;;;33.73;20.93;;;18.20;99.90;;;;;;5115364;28;20266;-79
2021/08/13 02:43:54;;;;;;;39.90;22.40;;;18.10;99.90;;;;;;5113921;28;20229;-77
2021/08/13 02:46:22;;;;;;;40.93;22.17;;;18.10;99.90;;;;;;5114876;28;20245;-76
2021/08/13 02:48:51;;;;;;;36.17;20.97;;;18.00;99.90;;;;;;5114942;28;20564;-80
2021/08/13 02:51:19;;;;;;;33.27;19.80;;;18.10;99.90;;;;;;5114678;28;20206;-77
2021/08/13 02:53:49;;;;;;;33.97;20.73;;;18.10;99.90;;;;;;5113870;28;20210;-80
2021/08/13 02:56:19;;;;;;;29.77;19.53;;;18.10;99.90;;;;;;5108103;28;20290;-78
2021/08/13 02:58:50;;;;;;;30.87;19.53;;;18.10;99.90;;;;;;5112460;28;20245;-78
2021/08/13 03:01:20;;;;;;;31.33;18.67;;;18.10;99.90;;;;;;5108051;28;20205;-77
2021/08/13 03:03:50;;;;;;;35.57;19.97;;;18.10;99.90;;;;;;5107882;28;20202;-81
2021/08/13 03:06:19;;;;;;;30.70;20.13;;;18.00;99.90;;;;;;5107152;28;20272;-80
2021/08/13 03:08:47;;;;;;;36.23;19.63;;;17.90;99.90;;;;;;5114626;28;20281;-81
2021/08/13 03:11:17;;;;;;;34.63;20.00;;;17.90;99.90;;;;;;5114640;28;20301;-78
2021/08/13 03:13:45;;;;;;;32.03;18.60;;;17.90;99.90;;;;;;5113220;28;20209;-82
2021/08/13 03:16:13;;;;;;;33.47;19.33;;;17.90;99.90;;;;;;5114872;28;20233;-79
2021/08/13 03:18:41;;;;;;;34.93;20.40;;;17.80;99.90;;;;;;5113188;28;20289;-79
2021/08/13 03:21:10;;;;;;;33.80;19.07;;;17.80;99.90;;;;;;5114221;28;20289;-78
2021/08/13 03:23:38;;;;;;;31.03;19.27;;;17.80;99.90;;;;;;5113218;28;20646;-77
2021/08/13 03:26:05;;;;;;;36.30;18.80;;;17.70;99.90;;;;;;5114096;28;20605;-79
2021/08/13 03:28:34;;;;;;;30.73;19.17;;;17.60;99.90;;;;;;5114298;28;20285;-79
2021/08/13 03:31:00;;;;;;;26.17;16.97;;;17.60;99.90;;;;;;5113650;28;20236;-75
2021/08/13 03:33:29;;;;;;;27.33;17.93;;;17.60;99.90;;;;;;5114235;28;20704;-80
2021/08/13 03:35:57;;;;;;;27.47;17.50;;;17.60;99.90;;;;;;5109183;28;20629;-76
2021/08/13 03:38:24;;;;;;;28.10;17.07;;;17.60;99.90;;;;;;5113133;28;20202;-78
2021/08/13 03:40:51;;;;;;;30.10;17.20;;;17.70;99.90;;;;;;5114048;28;20234;-78
2021/08/13 03:43:18;;;;;;;27.47;17.90;;;17.80;99.90;;;;;;5114176;28;20251;-80
2021/08/13 03:45:45;;;;;;;25.20;16.37;;;17.80;99.90;;;;;;5113406;28;20310;-76
2021/08/13 03:48:11;;;;;;;22.50;15.47;;;17.70;99.90;;;;;;5112760;28;20253;-78
2021/08/13 03:50:40;;;;;;;24.43;15.80;;;17.70;99.90;;;;;;5113692;28;20277;-79
2021/08/13 03:53:07;;;;;;;23.30;14.83;;;17.60;99.90;;;;;;5113786;28;20194;-79
2021/08/13 03:55:33;;;;;;;26.87;15.03;;;17.50;99.90;;;;;;5112990;28;20292;-78
2021/08/13 03:58:00;;;;;;;25.97;15.27;;;17.40;99.90;;;;;;5113816;28;20279;-78
2021/08/13 04:00:27;;;;;;;25.07;14.07;;;17.40;99.90;;;;;;5113857;28;20652;-80
2021/08/13 04:02:54;;;;;;;24.00;14.20;;;17.30;99.90;;;;;;5113139;28;20676;-79
2021/08/13 04:05:21;;;;;;;23.13;14.13;;;17.40;99.90;;;;;;5112578;28;20281;-76
2021/08/13 04:07:49;;;;;;;25.03;15.20;;;17.30;99.90;;;;;;5113410;28;20320;-77
2021/08/13 04:10:16;;;;;;;23.87;14.07;;;17.20;99.90;;;;;;5108603;28;20613;-79
2021/08/13 04:12:43;;;;;;;22.87;13.47;;;17.20;99.90;;;;;;5113275;28;20657;-77
2021/08/13 04:15:11;;;;;;;22.17;13.40;;;17.20;99.90;;;;;;5113258;28;20284;-77
2021/08/13 04:17:37;;;;;;;19.37;12.63;;;17.20;99.90;;;;;;5113416;28;20321;-78
2021/08/13 04:20:05;;;;;;;19.93;11.57;;;17.10;99.90;;;;;;5112439;28;20206;-78
2021/08/13 04:22:32;;;;;;;17.03;12.03;;;17.10;99.90;;;;;;5112345;28;20289;-76
2021/08/13 04:25:00;;;;;;;19.83;12.13;;;17.10;99.90;;;;;;5113233;28;20226;-80
2021/08/13 04:27:27;;;;;;;19.30;12.63;;;17.20;99.90;;;;;;5112873;28;20293;-76
2021/08/13 04:29:54;;;;;;;20.23;12.57;;;17.20;99.90;;;;;;5112974;28;20228;-76
2021/08/13 04:32:21;;;;;;;18.73;12.80;;;17.20;99.90;;;;;;5103624;28;20305;-77
2021/08/13 04:34:48;;;;;;;21.17;12.10;;;17.20;99.90;;;;;;5113144;28;20210;-77
2021/08/13 04:37:15;;;;;;;19.80;11.77;;;17.20;99.90;;;;;;5111648;28;20205;-77
2021/08/13 04:39:41;;;;;;;19.07;12.53;;;17.20;99.90;;;;;;5107814;28;20230;-79
2021/08/13 04:42:10;;;;;;;19.53;12.53;;;17.20;99.90;;;;;;5109200;28;20296;-76
2021/08/13 04:44:37;;;;;;;23.67;13.93;;;17.20;99.90;;;;;;5113093;28;20225;-77
2021/08/13 04:47:04;;;;;;;18.83;12.83;;;17.30;99.90;;;;;;5111814;28;20619;-76
2021/08/13 04:49:32;;;;;;;23.57;12.37;;;17.30;99.90;;;;;;5113196;28;20277;-78
2021/08/13 04:51:59;;;;;;;20.53;12.13;;;17.40;99.90;;;;;;5112995;28;20619;-76
2021/08/13 04:54:26;;;;;;;17.70;11.83;;;17.40;99.90;;;;;;5096189;28;20559;-77
2021/08/13 04:56:53;;;;;;;18.53;12.03;;;17.40;99.90;;;;;;5099897;28;20208;-78
2021/08/13 04:59:21;;;;;;;17.97;10.67;;;17.50;99.90;;;;;;5103446;28;20224;-76
2021/08/13 05:01:48;;;;;;;17.00;11.10;;;17.50;99.90;;;;;;5107665;28;20194;-76
2021/08/13 05:04:17;;;;;;;15.20;9.97;;;17.60;99.90;;;;;;5104167;28;20199;-79
2021/08/13 05:06:44;;;;;;;16.07;9.73;;;17.70;99.90;;;;;;5112173;28;20658;-76
2021/08/13 05:09:11;;;;;;;14.00;8.40;;;17.70;99.90;;;;;;5112119;28;20286;-78
2021/08/13 05:11:38;;;;;;;13.30;8.20;;;17.80;99.90;;;;;;5112453;28;20736;-76
2021/08/13 05:14:05;;;;;;;12.80;8.87;;;17.90;99.90;;;;;;5113133;28;20277;-79
2021/08/13 05:16:33;;;;;;;11.30;7.83;;;17.90;99.90;;;;;;5112829;28;20198;-76
2021/08/13 05:19:00;;;;;;;17.47;9.20;;;17.90;99.90;;;;;;5112608;28;20737;-77
2021/08/13 05:21:27;;;;;;;12.20;7.93;;;17.90;99.90;;;;;;5112675;28;20267;-76
2021/08/13 05:23:54;;;;;;;11.03;7.70;;;18.00;99.90;;;;;;5112325;28;20233;-79
2021/08/13 05:26:21;;;;;;;15.17;7.43;;;18.00;99.90;;;;;;5099269;28;20656;-76
2021/08/13 05:28:48;;;;;;;10.90;7.20;;;18.00;99.90;;;;;;5091402;28;20241;-78
2021/08/13 05:31:15;;;;;;;10.17;6.67;;;17.90;99.90;;;;;;5088046;28;20285;-76
2021/08/13 05:33:43;;;;;;;12.63;7.13;;;18.00;99.90;;;;;;5108588;28;20551;-77
2021/08/13 05:36:10;;;;;;;10.93;6.97;;;18.10;99.90;;;;;;5102439;28;20661;-80
2021/08/13 05:38:37;;;;;;;12.03;6.27;;;18.00;99.90;;;;;;5107178;28;20202;-76
2021/08/13 05:41:04;;;;;;;9.80;5.80;;;18.10;99.90;;;;;;5110096;28;20899;-78
2021/08/13 05:43:31;;;;;;;11.77;6.67;;;18.10;99.90;;;;;;5108390;28;20285;-77
2021/08/13 05:45:58;;;;;;;10.00;6.60;;;18.20;99.90;;;;;;5104810;28;20691;-77
2021/08/13 05:48:24;;;;;;;12.10;7.00;;;18.20;99.90;;;;;;5096450;28;20309;-76
2021/08/13 05:50:53;;;;;;;9.50;6.33;;;18.20;99.90;;;;;;5093665;28;20221;-78
2021/08/13 05:53:20;;;;;;;11.40;6.17;;;18.30;99.90;;;;;;5093036;28;20622;-79
2021/08/13 05:55:46;;;;;;;9.07;6.20;;;18.40;99.90;;;;;;5094803;28;20774;-77
2021/08/13 05:58:13;;;;;;;8.53;6.13;;;18.50;99.90;;;;;;5093097;28;20688;-77
2021/08/13 06:00:40;;;;;;;8.20;5.20;;;18.50;99.90;;;;;;5091653;28;20206;-76
2021/08/13 06:03:07;;;;;;;9.63;5.67;;;18.50;99.90;;;;;;5094883;28;20195;-77
2021/08/13 06:05:34;;;;;;;7.83;5.87;;;18.50;99.90;;;;;;5094530;28;20677;-76
2021/08/13 06:08:02;;;;;;;8.23;5.90;;;18.70;99.90;;;;;;5091987;28;20214;-76
2021/08/13 06:10:29;;;;;;;10.50;5.90;;;18.60;99.90;;;;;;5097914;28;20222;-78
2021/08/13 06:12:56;;;;;;;8.57;5.87;;;18.60;99.90;;;;;;5087389;28;20223;-76
2021/08/13 06:15:23;;;;;;;8.40;6.00;;;18.60;99.90;;;;;;5102116;28;20759;-78
2021/08/13 06:17:50;;;;;;;10.10;6.40;;;18.70;99.90;;;;;;5089882;28;20282;-78
2021/08/13 06:20:19;;;;;;;10.93;6.53;;;18.70;99.90;;;;;;5096448;28;20707;-77
2021/08/13 06:22:46;;;;;;;7.53;5.73;;;18.80;99.90;;;;;;5094832;28;20280;-77
2021/08/13 06:25:14;;;;;;;9.10;5.97;;;18.90;99.90;;;;;;5095315;28;20187;-77
2021/08/13 06:27:42;;;;;;;11.10;6.03;;;18.90;99.90;;;;;;5094197;28;20297;-77
2021/08/13 06:30:11;;;;;;;8.13;5.70;;;19.00;99.90;;;;;;5095714;28;20199;-77
2021/08/13 06:32:38;;;;;;;11.37;6.87;;;19.00;99.90;;;;;;5086396;28;20226;-79
2021/08/13 06:35:06;;;;;;;10.90;6.37;;;19.10;99.90;;;;;;5094298;28;20194;-78
2021/08/13 06:37:33;;;;;;;9.63;6.33;;;19.10;99.90;;;;;;5094941;28;20201;-76
2021/08/13 06:40:00;;;;;;;11.37;6.77;;;19.10;99.90;;;;;;5082534;28;20290;-78
2021/08/13 06:42:28;;;;;;;10.07;6.50;;;19.20;99.90;;;;;;5080829;28;20683;-76
2021/08/13 06:44:55;;;;;;;9.40;6.50;;;19.30;99.90;;;;;;5096912;28;20723;-75
2021/08/13 06:47:23;;;;;;;7.97;6.43;;;19.30;99.90;;;;;;5094213;28;20241;-78
2021/08/13 06:49:50;;;;;;;7.77;6.27;;;19.40;99.90;;;;;;5092611;28;20226;-78
2021/08/13 06:52:17;;;;;;;13.77;6.90;;;19.30;99.90;;;;;;5094243;28;20199;-78
2021/08/13 06:54:44;;;;;;;11.77;7.20;;;19.40;99.90;;;;;;5094328;28;20227;-80
2021/08/13 06:57:11;;;;;;;9.50;6.63;;;19.50;99.90;;;;;;5092619;28;20234;-78
2021/08/13 06:59:39;;;;;;;10.27;6.67;;;19.50;99.90;;;;;;5091629;28;20282;-79
2021/08/13 07:02:06;;;;;;;12.30;6.37;;;19.60;99.90;;;;;;5086526;28;20237;-79
2021/08/13 07:04:33;;;;;;;9.97;6.37;;;19.80;99.90;;;;;;5097968;28;20226;-78
2021/08/13 07:07:00;;;;;;;10.13;6.20;;;20.00;99.90;;;;;;5086725;28;20673;-79
2021/08/13 07:09:27;;;;;;;10.47;7.37;;;20.10;99.90;;;;;;5094325;28;20293;-81
2021/08/13 07:11:55;;;;;;;8.87;6.53;;;20.30;99.90;;;;;;5100710;28;20194;-79
2021/08/13 07:14:23;;;;;;;9.67;7.07;;;20.30;99.90;;;;;;5103282;28;20290;-79
2021/08/13 07:16:52;;;;;;;10.33;7.03;;;20.30;99.90;;;;;;5094983;28;20709;-80
2021/08/13 07:19:19;;;;;;;12.43;7.07;;;20.30;99.90;;;;;;5092624;28;20691;-80
2021/08/13 07:21:49;;;;;;;9.50;7.07;;;20.30;99.90;;;;;;5102942;28;20585;-81
2021/08/13 07:24:19;;;;;;;11.23;7.47;;;20.20;99.90;;;;;;5097164;28;20205;-80
2021/08/13 07:26:46;;;;;;;10.37;6.97;;;20.30;99.90;;;;;;5091022;28;20207;-79
2021/08/13 07:29:13;;;;;;;9.17;7.00;;;20.30;99.90;;;;;;5090493;28;20694;-78
2021/08/13 07:31:40;;;;;;;11.10;7.37;;;20.30;99.90;;;;;;5093930;28;20199;-79
2021/08/13 07:34:08;;;;;;;10.93;7.03;;;20.30;99.90;;;;;;5096881;28;20293;-78
2021/08/13 07:36:35;;;;;;;8.47;6.07;;;20.30;99.90;;;;;;5091128;28;20207;-80
2021/08/13 07:39:05;;;;;;;8.10;6.30;;;20.40;99.90;;;;;;5094959;28;20277;-80
2021/08/13 07:41:32;;;;;;;8.50;5.87;;;20.50;99.90;;;;;;5090273;28;20206;-79
2021/08/13 07:44:02;;;;;;;10.33;6.13;;;20.80;99.90;;;;;;5103006;28;20683;-79
2021/08/13 07:46:29;;;;;;;7.50;5.60;;;21.20;99.90;;;;;;5094332;28;20276;-80
2021/08/13 07:48:56;;;;;;;8.40;5.83;;;21.50;99.90;;;;;;5092091;28;20214;-79
2021/08/13 07:51:24;;;;;;;6.47;4.80;;;21.80;99.90;;;;;;5098587;28;20258;-79
2021/08/13 07:53:53;;;;;;;8.10;5.27;;;21.90;99.90;;;;;;5094123;28;20195;-78
2021/08/13 07:56:20;;;;;;;5.60;4.60;;;22.10;99.90;;;;;;5097439;28;20195;-81
2021/08/13 07:58:47;;;;;;;6.40;4.53;;;22.30;99.90;;;;;;5093902;28;20291;-79
2021/08/13 08:01:14;;;;;;;5.95;4.53;;;22.70;99.90;;;;;;5092005;28;20202;-77
2021/08/13 08:03:41;;;;;;;6.93;4.50;;;23.00;99.90;;;;;;5097055;28;20297;-79
2021/08/13 08:06:08;;;;;;;7.35;4.35;;;23.10;99.90;;;;;;5098371;28;20289;-79
2021/08/13 08:08:36;;;;;;;7.05;4.07;;;23.50;99.90;;;;;;5090610;28;20252;-79
2021/08/13 08:11:03;;;;;;;6.78;3.80;;;23.70;99.90;;;;;;5091000;28;20223;-80
2021/08/13 08:13:30;;;;;;;5.55;3.75;;;24.00;99.90;;;;;;5094798;28;20639;-80
2021/08/13 08:15:57;;;;;;;6.60;4.20;;;24.10;99.90;;;;;;5092758;28;20699;-78
2021/08/13 08:18:24;;;;;;;6.93;4.43;;;24.30;99.90;;;;;;5091203;28;20562;-81
2021/08/13 08:20:51;;;;;;;5.72;3.90;;;24.30;99.90;;;;;;5092564;28;20226;-80
2021/08/13 08:23:18;;;;;;;5.15;3.30;;;24.40;99.90;;;;;;5091563;28;20293;-80
2021/08/13 08:25:46;;;;;;;7.93;3.35;;;24.60;99.90;;;;;;5092066;28;20671;-79
2021/08/13 08:28:13;;;;;;;6.15;3.30;;;24.70;99.90;;;;;;5090501;28;20250;-80
2021/08/13 08:30:40;;;;;;;8.27;3.30;;;24.90;99.90;;;;;;5097277;28;20320;-79
2021/08/13 08:33:10;;;;;;;4.70;3.30;;;25.30;99.90;;;;;;5095430;28;20230;-80
2021/08/13 08:35:37;;;;;;;4.05;3.38;;;25.80;99.90;;;;;;5089935;28;20248;-79
2021/08/13 08:38:04;;;;;;;4.18;3.28;;;26.30;99.90;;;;;;5089130;28;20282;-78
2021/08/13 08:40:32;;;;;;;8.82;3.58;;;26.90;99.90;;;;;;5088196;28;20195;-79
2021/08/13 08:43:03;;;;;;;3.88;2.72;;;26.90;99.90;;;;;;5089357;28;20289;-78
2021/08/13 08:45:33;;;;;;;5.43;3.20;;;27.00;99.90;;;;;;5090834;28;20256;-78
2021/08/13 08:48:02;;;;;;;4.90;3.00;;;27.50;99.90;;;;;;5094133;28;20250;-76
2021/08/13 08:50:30;;;;;;;5.63;3.15;;;27.60;99.90;;;;;;5094774;28;20252;-78
2021/08/13 08:52:59;;;;;;;7.63;3.28;;;27.80;99.90;;;;;;5105399;28;20194;-83
2021/08/13 08:55:26;;;;;;;4.35;2.65;;;27.40;99.90;;;;;;5099461;28;20206;-81
2021/08/13 08:57:54;;;;;;;6.38;3.20;;;27.00;99.90;;;;;;5089664;28;20221;-78
2021/08/13 09:00:23;;;;;;;4.43;2.95;;;26.80;99.90;;;;;;5091627;28;20566;-79
2021/08/13 09:02:50;;;;;;;4.35;2.83;;;27.60;99.90;;;;;;5090609;28;20739;-78
2021/08/13 09:05:17;;;;;;;6.03;2.92;;;28.10;99.90;;;;;;5093943;28;20199;-76
2021/08/13 09:07:44;;;;;;;4.32;3.08;;;28.00;99.90;;;;;;5090293;28;20198;-77
2021/08/13 09:10:12;;;;;;;6.15;3.63;;;28.30;99.90;;;;;;5089790;28;20202;-77
2021/08/13 09:12:41;;;;;;;3.75;2.80;;;28.80;99.90;;;;;;5090451;28;20209;-78
2021/08/13 09:15:27;;;;;;;3.70;2.85;;;29.60;99.90;;;;;;5090281;28;20314;-76
2021/08/13 09:18:13;;;;;;;4.32;2.70;;;29.80;99.90;;;;;;5091784;28;20199;-78
2021/08/13 09:20:40;;;;;;;4.95;3.03;;;29.50;99.90;;;;;;5091736;28;20199;-79
2021/08/13 09:23:07;;;;;;;4.32;2.70;;;29.50;99.90;;;;;;5094053;28;20219;-79
2021/08/13 09:25:34;;;;;;;6.43;2.95;;;29.80;99.90;;;;;;5093463;28;20211;-79
2021/08/13 09:28:01;;;;;;;3.92;2.67;;;29.90;99.90;;;;;;5087371;28;20210;-79
2021/08/13 09:30:30;;;;;;;4.45;3.03;;;29.70;99.90;;;;;;5083450;28;20199;-79
2021/08/13 09:32:58;;;;;;;3.63;2.80;;;29.50;99.90;;;;;;5094325;28;20241;-79
2021/08/13 09:35:33;;;;;;;4.03;3.10;;;29.40;99.90;;;;;;5095723;28;20218;-79
2021/08/13 09:38:01;;;;;;;3.80;2.80;;;29.30;99.90;;;;;;5094615;28;20237;-80
2021/08/13 09:40:36;;;;;;;4.47;2.90;;;29.30;99.90;;;;;;5095809;28;20709;-79
2021/08/13 09:43:03;;;;;;;3.15;2.83;;;28.90;99.90;;;;;;5095350;28;20218;-79
2021/08/13 09:45:31;;;;;;;3.83;3.08;;;28.80;99.90;;;;;;5093466;28;20279;-82
2021/08/13 09:47:58;;;;;;;3.63;2.60;;;29.40;99.90;;;;;;5094464;28;20218;-80
2021/08/13 09:50:38;;;;;;;4.78;2.92;;;29.60;99.90;;;;;;5093658;28;20223;-80
2021/08/13 09:53:12;;;;;;;4.50;2.80;;;29.60;99.90;;;;;;5095748;28;20595;-81
2021/08/13 09:55:40;;;;;;;4.03;3.10;;;30.00;99.90;;;;;;5094349;28;20628;-80
2021/08/13 09:58:10;;;;;;;4.03;3.05;;;30.60;99.90;;;;;;5090164;28;20195;-81
2021/08/13 10:00:50;;;;;;;6.28;2.95;;;30.70;99.90;;;;;;5087506;28;20221;-83
2021/08/13 10:03:18;;;;;;;5.57;3.03;;;30.40;99.90;;;;;;5089183;28;20191;-85
2021/08/13 10:05:47;;;;;;;6.63;3.47;;;30.00;99.90;;;;;;5086410;28;20211;-83
2021/08/13 10:08:14;;;;;;;4.88;3.35;;;30.30;99.90;;;;;;5082860;28;20207;-81
2021/08/13 10:10:42;;;;;;;4.68;3.40;;;31.30;99.90;;;;;;5083874;28;20241;-81
2021/08/13 10:13:10;;;;;;;5.18;3.42;;;31.30;99.90;;;;;;5088186;28;20198;-85
2021/08/13 10:15:39;;;;;;;8.80;3.63;;;31.20;99.90;;;;;;5087543;28;20213;-81
2021/08/13 10:18:08;;;;;;;7.18;3.42;;;31.70;99.90;;;;;;5096494;28;20242;-83
2021/08/13 10:20:37;;;;;;;6.25;3.33;;;31.50;99.90;;;;;;5098852;28;20230;-82
2021/08/13 10:23:04;;;;;;;6.03;3.40;;;31.20;99.90;;;;;;5092538;28;20273;-82
2021/08/13 10:25:31;;;;;;;6.25;3.25;;;30.70;99.90;;;;;;5100144;28;20282;-82
2021/08/13 10:27:58;;;;;;;7.30;3.63;;;30.10;99.90;;;;;;5109814;28;20255;-80
2021/08/13 10:30:25;;;;;;;7.38;3.42;;;29.80;99.90;;;;;;5097305;28;20281;-88
2021/08/13 10:32:56;;;;;;;7.13;3.35;;;29.70;99.90;;;;;;5102279;28;20219;-83
2021/08/13 10:35:29;;;;;;;5.05;3.20;;;29.30;99.90;;;;;;5092006;28;20206;-82
2021/08/13 10:37:58;;;;;;;5.72;3.47;;;29.10;99.90;;;;;;5100726;28;20342;-82
2021/08/13 10:40:26;;;;;;;4.50;3.13;;;29.20;99.90;;;;;;5095270;28;20234;-84
2021/08/13 10:42:55;;;;;;;5.90;3.47;;;30.00;99.90;;;;;;5093756;28;20263;-83
2021/08/13 10:45:23;;;;;;;4.60;3.10;;;30.00;99.90;;;;;;5094647;28;20230;-83
2021/08/13 10:48:01;;;;;;;6.18;3.42;;;29.50;99.90;;;;;;5096343;28;20234;-84
2021/08/13 10:50:29;;;;;;;7.38;3.63;;;29.50;99.90;;;;;;5092548;28;20791;-83
2021/08/13 10:52:57;;;;;;;4.32;3.53;;;29.30;99.90;;;;;;5084892;28;20210;-84
2021/08/13 10:55:47;;;;;;;5.60;4.03;;;29.20;99.90;;;;;;5091873;28;20206;-80
2021/08/13 10:58:31;;;;;;;5.88;3.72;;;29.00;99.90;;;;;;5092419;28;20668;-78
2021/08/13 11:01:06;;;;;;;4.68;3.50;;;29.20;99.90;;;;;;5094224;28;20610;-79
2021/08/13 11:03:34;;;;;;;5.15;3.15;;;29.80;99.90;;;;;;5093847;28;20236;-78
2021/08/13 11:06:03;;;;;;;4.22;3.40;;;29.70;99.90;;;;;;5093812;28;20194;-80
2021/08/13 11:08:56;;;;;;;4.50;3.00;;;29.60;99.90;;;;;;5092207;28;20205;-80
2021/08/13 11:11:23;;;;;;;5.85;3.53;;;29.20;99.90;;;;;;5091664;28;20232;-81
2021/08/13 11:13:50;;;;;;;5.10;3.30;;;28.80;99.90;;;;;;5092494;28;20665;-79
2021/08/13 11:16:38;;;;;;;5.75;3.20;;;28.50;99.90;;;;;;5093505;28;20294;-78
2021/08/13 11:19:09;;;;;;;4.43;3.28;;;28.10;99.90;;;;;;5092920;28;20195;-79
2021/08/13 11:21:39;;;;;;;6.75;3.42;;;28.00;99.90;;;;;;5093171;28;20576;-81
2021/08/13 11:24:09;;;;;;;5.05;3.20;;;27.70;99.90;;;;;;5093195;28;20198;-80
2021/08/13 11:27:08;;;;;;;5.07;3.20;;;27.60;99.90;;;;;;5092820;28;20226;-83
2021/08/13 11:29:39;;;;;;;6.15;2.65;;;27.50;99.90;;;;;;5090563;28;20745;-79
2021/08/13 11:32:22;;;;;;;8.18;3.50;;;27.50;99.90;;;;;;5093688;28;20201;-81
2021/08/13 11:34:51;;;;;;;3.40;2.85;;;27.50;99.90;;;;;;5092077;28;20707;-78
2021/08/13 11:37:57;;;;;;;10.35;3.10;;;27.60;99.90;;;;;;5093635;28;20202;-79
2021/08/13 11:40:49;;;;;;;5.63;3.03;;;27.80;99.90;;;;;;5089137;28;20244;-80
2021/08/13 11:43:18;;;;;;;6.57;2.70;;;28.30;99.90;;;;;;5091216;28;20249;-79
2021/08/13 11:45:47;;;;;;;5.28;2.90;;;28.50;99.90;;;;;;5090487;28;20241;-79
2021/08/13 11:48:15;;;;;;;6.53;3.13;;;28.90;99.90;;;;;;5090792;28;20213;-81
2021/08/13 11:50:43;;;;;;;8.05;3.30;;;29.00;99.90;;;;;;5092601;28;20219;-81
2021/08/13 11:53:11;;;;;;;8.85;3.20;;;29.30;99.90;;;;;;5092790;28;20203;-78
2021/08/13 11:55:40;;;;;;;4.90;3.10;;;29.40;99.90;;;;;;5092621;28;20194;-77
2021/08/13 11:58:21;;;;;;;7.15;3.58;;;30.00;99.90;;;;;;5093520;28;20229;-79
2021/08/13 12:00:48;;;;;;;5.10;3.55;;;30.30;99.90;;;;;;5092378;28;20207;-77
2021/08/13 12:03:24;;;;;;;4.65;2.83;;;30.70;99.90;;;;;;5092785;28;20205;-77
2021/08/13 12:05:51;;;;;;;7.43;3.55;;;31.70;99.90;;;;;;5092826;28;20259;-79
2021/08/13 12:08:18;;;;;;;7.38;3.00;;;31.10;99.90;;;;;;5092992;28;20313;-77
2021/08/13 12:10:46;;;;;;;6.78;3.30;;;30.70;99.90;;;;;;5093436;28;20271;-82
2021/08/13 12:13:15;;;;;;;7.10;3.03;;;30.50;99.90;;;;;;5093276;28;20277;-80
2021/08/13 12:15:44;;;;;;;6.78;3.45;;;30.90;99.90;;;;;;5093122;28;20203;-79
2021/08/13 12:18:11;;;;;;;4.72;3.30;;;30.70;99.90;;;;;;5092803;28;20190;-79
2021/08/13 12:20:45;;;;;;;5.25;3.40;;;30.70;99.90;;;;;;5092126;28;20286;-78
2021/08/13 12:23:12;;;;;;;4.40;3.08;;;30.50;99.90;;;;;;5092772;28;20194;-78
2021/08/13 12:25:41;;;;;;;9.32;3.45;;;30.30;99.90;;;;;;5092105;28;20230;-78
2021/08/13 12:28:08;;;;;;;6.93;3.50;;;30.40;99.90;;;;;;5092571;28;20199;-80
2021/08/13 12:30:37;;;;;;;5.28;3.40;;;30.10;99.90;;;;;;5093001;28;20791;-79
2021/08/13 12:33:05;;;;;;;13.07;3.90;;;29.50;99.90;;;;;;5091903;28;20256;-80
2021/08/13 12:35:40;;;;;;;5.65;3.40;;;29.90;99.90;;;;;;5091626;28;20194;-80
2021/08/13 12:38:08;;;;;;;4.88;3.20;;;30.50;99.90;;;;;;5091787;28;20327;-79
2021/08/13 12:40:47;;;;;;;5.70;3.55;;;31.10;99.90;;;;;;5091554;28;20197;-81
2021/08/13 12:43:17;;;;;;;6.15;3.17;;;31.10;99.90;;;;;;5090621;28;20256;-79
2021/08/13 12:45:45;;;;;;;9.00;3.67;;;31.20;99.90;;;;;;5090640;28;20229;-81
2021/08/13 12:48:14;;;;;;;4.22;3.30;;;31.20;99.90;;;;;;5091221;28;20246;-80